Terminal Aerodrome Forecast
Issued by NWS

Home | Current Version | Previous Version | Text Only | Print | Product List | Glossary On
Versions: 1 2 3 4 5 6 7 8 9 10 11 12 13
925
FTAK31 PAJN 201723
TAFAYA
TAF
PAYA 201723Z 2018/2118 00000KT P6SM VCSH OVC060
     FM202000 07004KT 5SM -SHSN BR SCT007 BKN035
     FM210000 06004KT P6SM OVC050
      AMD NOT SKED=

USA.gov is the U.S. government's official web portal to all federal, state and local government web resources and services.